Glynco, Georgia
Current Conditions -  °F | °C
As of 4:53 PM on Sunday 25 Jan 2015 (Local Time) from KSSI Reporting Station
Clear Clear  
Wind Chill: 55°   Ceiling: Unl
Heat Index: 55°   Visibility: 10mi
Dew Point: 43°   Wind: 8mph
Humidity: 64%   Direction: 160°SSE
Pressure: 29.91"   Gusts: NA
Location:  31.1428°N, 81.4709°W
Report Text: KSSI 252153Z AUTO 16007KT 10SM CLR 13/06 A2991 RMK AO2 SLP127 T01280061
Loading
Personal Weather Stations






























Interactive Weather Map New forecast layout! Learn more

10-Day Weather Forecast

Advertisements
Track Severe Weather on mobile